Carrizo Springs, Texas
Current Conditions -  °F | °C
As of 6:55 AM on Friday 19 Dec 2014 (Local Time) from KCZT Reporting Station
Overcast Overcast  
Wind Chill: 55°   Ceiling: 400
Heat Index: 55°   Visibility: 7mi
Dew Point: 55°   Wind: 6mph
Humidity: 100%   Direction: 60°ENE
Pressure: 30.03"   Gusts: NA
Location:  28.52°N, 99.86°W
Report Text: KCZT 191255Z AUTO 06005KT 7SM BKN004 OVC009 13/13 A3003 RMK AO2
Loading
Personal Weather Stations






























Interactive Weather Map New forecast layout! Learn more

10-Day Weather Forecast

Advertisements
Track Severe Weather on mobile